createdAt,value
2023-05-10T00:00:40.727Z,4.87
2023-05-10T00:03:07.276Z,5.87
2023-05-10T00:05:33.904Z,5.87
2023-05-10T00:08:00.391Z,5.60
2023-05-10T00:10:26.877Z,5.23
2023-05-10T00:12:53.391Z,5.00
2023-05-10T00:15:19.936Z,5.40
2023-05-10T00:17:46.469Z,4.67
2023-05-10T00:20:13.240Z,5.27
2023-05-10T00:22:39.714Z,5.33
2023-05-10T00:25:08.023Z,6.13
2023-05-10T00:27:34.510Z,5.20
2023-05-10T00:30:01.001Z,5.50
2023-05-10T00:32:27.485Z,4.93
2023-05-10T00:34:54.005Z,5.30
2023-05-10T00:37:20.485Z,6.37
2023-05-10T00:39:46.985Z,5.93
2023-05-10T00:42:13.431Z,5.80
2023-05-10T00:44:39.909Z,5.37
2023-05-10T00:47:06.548Z,5.23
2023-05-10T00:49:33.148Z,5.00
2023-05-10T00:52:00.149Z,5.40
2023-05-10T00:54:26.648Z,5.40
2023-05-10T00:56:53.232Z,4.57
2023-05-10T00:59:21.009Z,5.30
2023-05-10T01:01:48.022Z,5.20
2023-05-10T01:04:15.588Z,5.53
2023-05-10T01:06:43.002Z,5.63
2023-05-10T01:09:11.845Z,4.83
2023-05-10T01:11:40.291Z,4.60
2023-05-10T01:14:07.476Z,4.20
2023-05-10T01:16:38.526Z,4.30
2023-05-10T01:19:35.627Z,4.60
2023-05-10T01:23:09.336Z,5.23
2023-05-10T01:27:38.568Z,4.90
2023-05-10T01:33:27.607Z,3.97
2023-05-10T01:36:32.960Z,4.70
2023-05-10T01:39:14.894Z,4.80
2023-05-10T01:41:54.795Z,4.60
2023-05-10T01:44:55.898Z,4.83
2023-05-10T01:47:40.746Z,4.47
2023-05-10T01:50:19.187Z,5.10
2023-05-10T01:52:54.754Z,4.93
2023-05-10T01:55:28.722Z,5.37
2023-05-10T01:58:06.526Z,4.30
2023-05-10T02:00:35.645Z,4.70
2023-05-10T02:03:08.876Z,5.10
2023-05-10T02:05:37.778Z,4.77
2023-05-10T02:08:08.476Z,4.90
2023-05-10T02:10:36.452Z,4.87
2023-05-10T02:13:06.428Z,5.10
2023-05-10T02:15:34.883Z,4.97
2023-05-10T02:18:05.887Z,5.07
2023-05-10T02:20:34.610Z,4.90
2023-05-10T02:23:03.656Z,3.90
2023-05-10T02:25:33.022Z,3.67
2023-05-10T02:28:05.328Z,3.87
2023-05-10T02:30:35.109Z,3.90
2023-05-10T02:33:05.338Z,4.13
2023-05-10T02:35:33.789Z,3.40
2023-05-10T02:38:01.848Z,4.00
2023-05-10T02:40:29.156Z,3.80
2023-05-10T02:42:59.510Z,3.60
2023-05-10T02:45:31.624Z,3.50
2023-05-10T02:47:59.154Z,3.30
2023-05-10T02:50:30.438Z,3.57
2023-05-10T02:53:19.571Z,3.53
2023-05-10T02:55:51.172Z,3.40
2023-05-10T02:58:19.560Z,3.70
2023-05-10T03:00:46.782Z,3.63
2023-05-10T03:03:13.385Z,3.83
2023-05-10T03:05:39.885Z,3.77
2023-05-10T03:08:06.520Z,3.57
2023-05-10T03:10:41.988Z,3.30
2023-05-10T03:14:03.667Z,3.80
2023-05-10T03:16:47.886Z,4.37
2023-05-10T03:19:53.501Z,4.07
2023-05-10T03:22:32.808Z,3.63
2023-05-10T03:25:06.671Z,3.93
2023-05-10T03:27:35.768Z,4.77
2023-05-10T03:30:05.398Z,4.70
2023-05-10T03:32:34.581Z,3.93
2023-05-10T03:35:01.682Z,3.80
2023-05-10T03:37:28.167Z,3.40
2023-05-10T03:39:54.684Z,4.03
2023-05-10T03:42:21.158Z,4.00
2023-05-10T03:44:49.411Z,3.73
2023-05-10T03:47:15.988Z,3.37
2023-05-10T03:49:42.473Z,3.50
2023-05-10T03:52:08.967Z,3.20
2023-05-10T03:54:35.429Z,3.67
2023-05-10T03:57:03.144Z,4.13
2023-05-10T03:59:29.638Z,3.30
2023-05-10T04:01:56.530Z,3.57
2023-05-10T04:04:23.515Z,3.70
2023-05-10T04:06:50.391Z,3.50
2023-05-10T04:09:19.128Z,3.37
2023-05-10T04:11:45.612Z,3.67
2023-05-10T04:14:12.102Z,3.90
2023-05-10T04:16:38.625Z,2.87
2023-05-10T04:19:05.258Z,3.50
2023-05-10T04:21:31.724Z,3.60
2023-05-10T04:23:58.208Z,3.23
2023-05-10T04:26:25.767Z,3.40
2023-05-10T04:28:52.243Z,3.63
2023-05-10T04:31:18.885Z,3.77
2023-05-10T04:33:46.000Z,3.23
2023-05-10T04:36:13.141Z,3.37
2023-05-10T04:38:39.728Z,3.47
2023-05-10T04:41:13.769Z,4.13
2023-05-10T04:43:40.254Z,3.73
2023-05-10T04:46:07.583Z,3.80
2023-05-10T04:48:34.247Z,3.87
2023-05-10T04:51:00.783Z,4.50
2023-05-10T04:53:27.611Z,4.10
2023-05-10T04:55:54.145Z,4.13
2023-05-10T04:58:20.649Z,3.83
2023-05-10T05:00:47.140Z,3.50
2023-05-10T05:03:13.728Z,4.30
2023-05-10T05:05:40.280Z,3.87
2023-05-10T05:08:06.806Z,4.17
2023-05-10T05:10:33.379Z,3.97
2023-05-10T05:12:59.940Z,3.80
2023-05-10T05:15:26.740Z,4.23
2023-05-10T05:17:53.340Z,4.23
2023-05-10T05:20:19.996Z,4.30
2023-05-10T05:22:46.529Z,4.50
2023-05-10T05:25:13.084Z,4.23
2023-05-10T05:27:39.547Z,3.73
2023-05-10T05:30:08.669Z,4.23
2023-05-10T05:32:35.272Z,3.87
2023-05-10T05:35:01.847Z,3.47
2023-05-10T05:37:28.323Z,4.27
2023-05-10T05:39:55.282Z,4.43
2023-05-10T05:42:21.781Z,4.40
2023-05-10T05:44:48.270Z,4.27
2023-05-10T05:47:14.763Z,3.97
2023-05-10T05:49:41.277Z,4.13
2023-05-10T05:52:07.754Z,4.47
2023-05-10T05:54:34.286Z,4.33
2023-05-10T05:57:01.644Z,4.27
2023-05-10T05:59:28.726Z,4.80
2023-05-10T06:01:55.314Z,4.70
2023-05-10T06:04:22.012Z,5.00
2023-05-10T06:06:48.604Z,4.63
2023-05-10T06:09:15.182Z,4.67
2023-05-10T06:11:41.732Z,4.43
2023-05-10T06:14:08.218Z,4.80
2023-05-10T06:16:35.435Z,5.20
2023-05-10T06:19:02.686Z,4.40
2023-05-10T06:21:29.225Z,4.22
2023-05-10T06:23:55.677Z,4.45
2023-05-10T06:26:22.198Z,3.70
2023-05-10T06:28:48.879Z,4.40
2023-05-10T06:31:16.288Z,4.20
2023-05-10T06:33:42.826Z,4.10
2023-05-10T06:36:09.359Z,4.97
2023-05-10T06:38:35.928Z,4.50
2023-05-10T06:41:02.430Z,4.43
2023-05-10T06:43:28.980Z,4.53
2023-05-10T06:45:55.542Z,4.60
2023-05-10T06:48:22.160Z,5.17
2023-05-10T06:50:48.689Z,5.23
2023-05-10T06:53:15.677Z,4.87
2023-05-10T06:55:42.340Z,4.70
2023-05-10T06:58:08.845Z,4.82
2023-05-10T07:00:35.485Z,4.72
2023-05-10T07:03:02.002Z,4.27
2023-05-10T07:05:29.607Z,4.75
2023-05-10T07:07:56.594Z,4.57
2023-05-10T07:10:23.116Z,4.20
2023-05-10T07:12:49.796Z,4.40
2023-05-10T07:15:16.469Z,4.50
2023-05-10T07:17:45.527Z,4.70
2023-05-10T07:20:12.991Z,4.50
2023-05-10T07:22:39.549Z,4.45
2023-05-10T07:25:07.037Z,4.60
2023-05-10T07:27:33.552Z,4.78
2023-05-10T07:30:01.864Z,4.45
2023-05-10T07:32:28.459Z,4.47
2023-05-10T07:34:55.031Z,4.05
2023-05-10T07:37:21.561Z,4.87
2023-05-10T07:39:48.046Z,4.70
2023-05-10T07:42:14.596Z,4.68
2023-05-10T07:44:41.133Z,4.90
2023-05-10T07:47:07.643Z,4.53
2023-05-10T07:49:34.176Z,4.73
2023-05-10T07:52:00.820Z,4.18
2023-05-10T07:54:27.310Z,4.25
2023-05-10T07:56:53.850Z,4.43
2023-05-10T07:59:20.428Z,5.15
2023-05-10T08:01:46.927Z,4.72
2023-05-10T08:04:13.479Z,4.75
2023-05-10T08:06:40.681Z,4.85
2023-05-10T08:09:07.298Z,5.90
2023-05-10T08:11:35.004Z,5.05
2023-05-10T08:14:01.850Z,5.10
2023-05-10T08:16:29.058Z,5.03
2023-05-10T08:18:55.656Z,5.50
2023-05-10T08:21:22.181Z,5.53
2023-05-10T08:23:49.200Z,4.80
2023-05-10T08:26:16.211Z,4.57
2023-05-10T08:28:42.691Z,4.50
2023-05-10T08:31:09.245Z,4.80
2023-05-10T08:33:35.772Z,4.50
2023-05-10T08:36:02.283Z,4.78
2023-05-10T08:38:28.808Z,4.12
2023-05-10T08:40:59.951Z,5.05
2023-05-10T08:43:30.562Z,4.87
2023-05-10T08:46:01.124Z,4.60
2023-05-10T08:48:31.243Z,4.75
2023-05-10T08:51:00.587Z,4.75
2023-05-10T08:53:45.134Z,4.57
2023-05-10T08:56:11.992Z,3.83
2023-05-10T08:58:39.063Z,5.00
2023-05-10T09:01:06.292Z,4.40
2023-05-10T09:03:33.072Z,5.57
2023-05-10T09:05:59.626Z,4.65
2023-05-10T09:08:26.992Z,5.05
2023-05-10T09:10:55.513Z,4.60
2023-05-10T09:13:23.845Z,4.32
2023-05-10T09:15:52.311Z,4.93
2023-05-10T09:18:19.100Z,4.50
2023-05-10T09:20:45.637Z,4.60
2023-05-10T09:23:12.147Z,4.28
2023-05-10T09:25:38.958Z,4.20
2023-05-10T09:28:09.864Z,4.97
2023-05-10T09:30:36.940Z,4.20
2023-05-10T09:33:03.773Z,4.28
2023-05-10T09:35:33.723Z,4.28
2023-05-10T09:38:05.429Z,4.22
2023-05-10T09:40:32.442Z,3.70
2023-05-10T09:43:02.426Z,4.65
2023-05-10T09:45:36.192Z,4.18
2023-05-10T09:48:05.498Z,4.10
2023-05-10T09:50:32.098Z,3.17
2023-05-10T09:53:03.253Z,3.67
2023-05-10T09:55:46.102Z,4.22
2023-05-10T09:58:14.249Z,3.12
2023-05-10T10:00:43.930Z,3.58
2023-05-10T10:03:19.624Z,3.47
2023-05-10T10:05:48.716Z,3.42
2023-05-10T10:08:16.896Z,3.85
2023-05-10T10:10:46.639Z,3.80
2023-05-10T10:13:13.819Z,3.20
2023-05-10T10:15:40.968Z,3.30
2023-05-10T10:18:12.679Z,2.92
2023-05-10T10:20:39.216Z,3.30
2023-05-10T10:23:05.702Z,3.65
2023-05-10T10:25:32.580Z,3.30
2023-05-10T10:28:32.726Z,3.10
2023-05-10T10:31:17.826Z,2.95
2023-05-10T10:34:31.622Z,3.22
2023-05-10T10:37:05.124Z,2.62
2023-05-10T10:39:32.275Z,3.00
2023-05-10T10:42:00.167Z,2.72
2023-05-10T10:44:38.311Z,2.90
2023-05-10T10:47:31.351Z,2.80
2023-05-10T10:50:08.575Z,3.00
2023-05-10T10:52:42.772Z,3.28
2023-05-10T10:55:22.693Z,2.97
2023-05-10T10:58:06.271Z,3.03
2023-05-10T11:00:40.233Z,2.83
2023-05-10T11:03:10.923Z,2.60
2023-05-10T11:05:58.203Z,2.58
2023-05-10T11:08:30.318Z,2.35
2023-05-10T11:11:09.690Z,2.53
2023-05-10T11:13:45.491Z,2.75
2023-05-10T11:16:24.828Z,2.87
2023-05-10T11:19:07.308Z,2.72
2023-05-10T11:21:44.540Z,3.10
2023-05-10T11:24:17.881Z,3.08
2023-05-10T11:26:45.117Z,2.50
2023-05-10T11:29:14.097Z,2.78
2023-05-10T11:31:45.779Z,3.17
2023-05-10T11:34:14.613Z,3.22
2023-05-10T11:36:41.131Z,2.62
2023-05-10T11:39:07.900Z,2.58
2023-05-10T11:41:34.432Z,3.20
2023-05-10T11:44:01.997Z,2.40
2023-05-10T11:46:28.894Z,2.67
2023-05-10T11:49:07.111Z,2.10
2023-05-10T11:51:37.481Z,2.47
2023-05-10T11:54:11.641Z,2.60
2023-05-10T11:56:40.321Z,2.55
2023-05-10T11:59:08.155Z,2.65
2023-05-10T12:01:35.638Z,2.70
2023-05-10T12:04:02.678Z,2.42
2023-05-10T12:06:32.482Z,2.90
2023-05-10T12:08:59.539Z,2.60
2023-05-10T12:11:28.520Z,2.45
2023-05-10T12:13:56.548Z,2.70
2023-05-10T12:16:28.457Z,2.60
2023-05-10T12:18:58.846Z,3.20
2023-05-10T12:21:27.899Z,3.05
2023-05-10T12:24:02.730Z,2.60
2023-05-10T12:26:30.024Z,2.00
2023-05-10T12:29:19.281Z,2.20
2023-05-10T12:31:57.980Z,2.12
2023-05-10T12:34:36.350Z,2.00
2023-05-10T12:37:04.304Z,2.15
2023-05-10T12:39:46.419Z,2.40
2023-05-10T12:42:13.017Z,2.00
2023-05-10T12:44:40.199Z,2.17
2023-05-10T12:47:06.733Z,2.05
2023-05-10T12:49:34.131Z,2.70
2023-05-10T12:52:00.602Z,2.65
2023-05-10T12:54:28.063Z,2.65
2023-05-10T12:56:54.570Z,2.67
2023-05-10T12:59:21.077Z,2.20
2023-05-10T13:01:47.612Z,2.45
2023-05-10T13:04:14.220Z,2.70
2023-05-10T13:06:40.740Z,2.80
2023-05-10T13:09:07.232Z,3.35
2023-05-10T13:11:33.742Z,3.53
2023-05-10T13:14:00.500Z,4.87
2023-05-10T13:16:27.080Z,3.35
2023-05-10T13:18:53.657Z,3.47
2023-05-10T13:21:20.263Z,3.78
2023-05-10T13:23:47.041Z,3.30
2023-05-10T13:26:13.555Z,4.40
2023-05-10T13:28:40.903Z,3.83
2023-05-10T13:31:07.749Z,4.15
2023-05-10T13:33:34.307Z,4.43
2023-05-10T13:36:00.811Z,4.22
2023-05-10T13:38:27.311Z,4.43
2023-05-10T13:40:54.038Z,4.25
2023-05-10T13:43:20.780Z,4.90
2023-05-10T13:45:47.300Z,5.18
2023-05-10T13:48:13.768Z,4.70
2023-05-10T13:50:40.436Z,5.82
2023-05-10T13:53:06.919Z,5.40
2023-05-10T13:55:33.894Z,5.28
2023-05-10T13:58:00.405Z,5.85
2023-05-10T14:00:27.232Z,6.18
2023-05-10T14:02:54.903Z,5.70
2023-05-10T14:05:25.517Z,6.10
2023-05-10T14:07:52.858Z,7.28
2023-05-10T14:10:19.580Z,6.37
2023-05-10T14:12:46.308Z,6.15
2023-05-10T14:15:12.812Z,6.10
2023-05-10T14:17:39.396Z,5.37
2023-05-10T14:20:07.369Z,6.37
2023-05-10T14:22:34.011Z,5.87
2023-05-10T14:25:01.058Z,6.47
2023-05-10T14:27:27.598Z,5.97
2023-05-10T14:29:54.291Z,5.60
2023-05-10T14:32:20.976Z,6.40
2023-05-10T14:34:47.542Z,5.70
2023-05-10T14:37:15.675Z,5.93
2023-05-10T14:39:42.942Z,5.82
2023-05-10T14:42:09.567Z,5.68
2023-05-10T14:44:36.078Z,6.20
2023-05-10T14:47:02.686Z,6.70
2023-05-10T14:49:29.414Z,5.60
2023-05-10T14:51:55.946Z,5.68
2023-05-10T14:54:22.453Z,5.82
2023-05-10T14:56:50.228Z,5.45
2023-05-10T14:59:16.845Z,5.82
2023-05-10T15:01:43.707Z,5.25
2023-05-10T15:04:19.579Z,5.67
2023-05-10T15:06:46.595Z,5.40
2023-05-10T15:09:13.068Z,5.43
2023-05-10T15:11:39.659Z,5.85
2023-05-10T15:14:06.270Z,6.12
2023-05-10T15:16:35.644Z,5.55
2023-05-10T15:19:02.716Z,6.47
2023-05-10T15:21:29.520Z,5.55
2023-05-10T15:23:55.993Z,5.62
2023-05-10T15:26:22.494Z,6.18
2023-05-10T15:28:48.975Z,5.62
2023-05-10T15:31:15.524Z,5.82
2023-05-10T15:33:42.031Z,5.70
2023-05-10T15:36:08.573Z,5.82
2023-05-10T15:38:35.101Z,5.72
2023-05-10T15:41:01.580Z,5.90
2023-05-10T15:43:28.087Z,5.15
2023-05-10T15:45:54.554Z,5.30
2023-05-10T15:48:21.112Z,5.68
2023-05-10T15:50:47.593Z,5.62
2023-05-10T15:53:14.164Z,5.78
2023-05-10T15:55:40.677Z,5.78
2023-05-10T15:58:07.210Z,6.35
2023-05-10T16:00:33.834Z,5.90
2023-05-10T16:03:00.566Z,5.57
2023-05-10T16:05:31.137Z,6.00
2023-05-10T16:07:57.665Z,5.40
2023-05-10T16:10:24.133Z,5.82
2023-05-10T16:12:50.620Z,6.15
2023-05-10T16:15:17.389Z,5.80
2023-05-10T16:17:44.365Z,6.00
2023-05-10T16:20:11.437Z,5.30
2023-05-10T16:22:38.031Z,5.37
2023-05-10T16:25:05.546Z,6.28
2023-05-10T16:27:32.786Z,5.95
2023-05-10T16:29:59.657Z,6.20
2023-05-10T16:32:26.203Z,6.22
2023-05-10T16:34:52.854Z,6.45
2023-05-10T16:37:19.404Z,6.20
2023-05-10T16:39:45.875Z,6.18
2023-05-10T16:42:12.568Z,6.50
2023-05-10T16:44:39.078Z,6.37
2023-05-10T16:47:05.584Z,6.03
2023-05-10T16:49:32.052Z,5.97
2023-05-10T16:51:59.835Z,6.22
2023-05-10T16:54:27.551Z,6.68
2023-05-10T16:56:54.071Z,5.75
2023-05-10T16:59:20.766Z,5.90
2023-05-10T17:01:47.433Z,6.00
2023-05-10T17:04:14.363Z,6.00
2023-05-10T17:06:40.885Z,6.47
2023-05-10T17:09:07.377Z,6.78
2023-05-10T17:11:33.875Z,6.50
2023-05-10T17:14:01.408Z,6.47
2023-05-10T17:16:29.519Z,5.93
2023-05-10T17:18:56.093Z,6.37
2023-05-10T17:21:22.677Z,6.25
2023-05-10T17:23:49.163Z,6.53
2023-05-10T17:26:16.347Z,6.28
2023-05-10T17:28:42.836Z,6.60
2023-05-10T17:31:09.324Z,6.32
2023-05-10T17:33:35.818Z,5.97
2023-05-10T17:36:03.074Z,6.43
2023-05-10T17:38:29.599Z,7.07
2023-05-10T17:40:56.108Z,6.60
2023-05-10T17:43:23.099Z,6.25
2023-05-10T17:45:49.652Z,6.60
2023-05-10T17:48:16.501Z,6.12
2023-05-10T17:50:42.996Z,6.28
2023-05-10T17:53:09.984Z,6.65
2023-05-10T17:55:40.664Z,6.60
2023-05-10T17:58:07.947Z,6.28
2023-05-10T18:00:35.167Z,6.37
2023-05-10T18:03:03.247Z,6.07
2023-05-10T18:05:29.941Z,6.28
2023-05-10T18:07:56.635Z,7.10
2023-05-10T18:10:24.663Z,7.25
2023-05-10T18:12:51.789Z,7.25
2023-05-10T18:15:18.454Z,7.30
2023-05-10T18:17:45.027Z,7.28
2023-05-10T18:20:12.289Z,6.90
2023-05-10T18:22:38.750Z,7.35
2023-05-10T18:25:06.165Z,6.97
2023-05-10T18:27:32.775Z,7.45
2023-05-10T18:29:59.284Z,6.47
2023-05-10T18:32:25.896Z,6.45
2023-05-10T18:34:53.943Z,6.57
2023-05-10T18:37:22.134Z,6.72
2023-05-10T18:39:48.654Z,6.50
2023-05-10T18:42:15.430Z,6.62
2023-05-10T18:44:41.928Z,6.70
2023-05-10T18:47:08.849Z,7.60
2023-05-10T18:49:35.326Z,7.90
2023-05-10T18:52:01.776Z,7.57
2023-05-10T18:54:29.051Z,8.68
2023-05-10T18:56:56.589Z,8.13
2023-05-10T18:59:23.080Z,7.68
2023-05-10T19:01:51.203Z,8.10
2023-05-10T19:04:17.983Z,7.47
2023-05-10T19:06:44.554Z,8.23
2023-05-10T19:09:11.202Z,8.67
2023-05-10T19:11:37.727Z,7.83
2023-05-10T19:14:05.123Z,8.15
2023-05-10T19:16:34.366Z,8.27
2023-05-10T19:19:01.160Z,8.60
2023-05-10T19:21:27.742Z,9.47
2023-05-10T19:23:58.679Z,8.47
2023-05-10T19:26:25.245Z,8.20
2023-05-10T19:28:52.340Z,8.18
2023-05-10T19:31:19.944Z,7.83
2023-05-10T19:33:46.964Z,8.00
2023-05-10T19:36:13.603Z,8.13
2023-05-10T19:38:40.104Z,8.50
2023-05-10T19:41:06.627Z,8.73
2023-05-10T19:43:34.573Z,9.30
2023-05-10T19:46:02.424Z,8.53
2023-05-10T19:48:29.639Z,9.07
2023-05-10T19:51:02.300Z,8.40
2023-05-10T19:53:29.595Z,8.73
2023-05-10T19:56:01.640Z,8.93
2023-05-10T19:58:28.948Z,7.93
2023-05-10T20:00:55.447Z,8.53
2023-05-10T20:03:22.023Z,8.27
2023-05-10T20:05:48.526Z,8.70
2023-05-10T20:08:15.493Z,8.57
2023-05-10T20:10:41.976Z,8.53
2023-05-10T20:13:08.504Z,9.07
2023-05-10T20:15:35.025Z,9.70
2023-05-10T20:18:02.830Z,9.40
2023-05-10T20:20:29.468Z,9.73
2023-05-10T20:22:55.992Z,9.97
2023-05-10T20:25:22.549Z,9.70
2023-05-10T20:27:50.157Z,10.07
2023-05-10T20:30:20.271Z,9.97
2023-05-10T20:32:46.950Z,9.77
2023-05-10T20:35:13.532Z,9.10
2023-05-10T20:37:40.178Z,9.60
2023-05-10T20:40:07.845Z,9.07
2023-05-10T20:42:34.462Z,9.00
2023-05-10T20:45:00.960Z,8.80
2023-05-10T20:47:27.586Z,9.23
2023-05-10T20:49:54.165Z,9.23
2023-05-10T20:52:21.401Z,9.10
2023-05-10T20:54:49.295Z,9.63
2023-05-10T20:57:15.781Z,9.63
2023-05-10T20:59:42.300Z,9.97
2023-05-10T21:02:08.764Z,10.17
2023-05-10T21:04:35.542Z,9.80
2023-05-10T21:07:02.089Z,9.63
2023-05-10T21:09:28.558Z,9.20
2023-05-10T21:11:55.183Z,9.80
2023-05-10T21:14:21.694Z,9.57
2023-05-10T21:16:50.360Z,11.97
2023-05-10T21:19:17.102Z,8.83
2023-05-10T21:21:43.613Z,9.30
2023-05-10T21:24:10.246Z,8.30
2023-05-10T21:26:36.742Z,9.40
2023-05-10T21:29:04.102Z,9.67
2023-05-10T21:31:31.198Z,9.13
2023-05-10T21:33:57.988Z,9.13
2023-05-10T21:36:25.374Z,9.57
2023-05-10T21:38:52.004Z,8.27
2023-05-10T21:41:18.518Z,9.43
2023-05-10T21:43:45.092Z,9.73
2023-05-10T21:46:12.621Z,9.80
2023-05-10T21:48:39.181Z,9.77
2023-05-10T21:51:05.685Z,10.23
2023-05-10T21:53:32.224Z,10.03
2023-05-10T21:56:01.252Z,10.17
2023-05-10T21:58:27.876Z,9.73
2023-05-10T22:00:54.410Z,9.23
2023-05-10T22:03:21.303Z,9.40
2023-05-10T22:05:47.955Z,9.63
2023-05-10T22:08:14.478Z,10.20
2023-05-10T22:10:40.985Z,10.20
2023-05-10T22:13:07.498Z,9.90
2023-05-10T22:15:36.340Z,9.97
2023-05-10T22:18:03.371Z,9.93
2023-05-10T22:20:29.941Z,9.67
2023-05-10T22:22:56.460Z,9.57
2023-05-10T22:25:22.956Z,9.33
2023-05-10T22:27:49.454Z,8.87
2023-05-10T22:30:16.311Z,9.10
2023-05-10T22:32:43.141Z,8.67
2023-05-10T22:35:09.834Z,8.90
2023-05-10T22:37:36.352Z,8.83
2023-05-10T22:40:05.336Z,9.20
2023-05-10T22:42:31.859Z,8.80
2023-05-10T22:44:58.363Z,9.10
2023-05-10T22:47:25.115Z,8.80
2023-05-10T22:49:51.692Z,8.33
2023-05-10T22:52:18.213Z,9.00
2023-05-10T22:54:44.716Z,8.43
2023-05-10T22:57:11.387Z,9.00
2023-05-10T22:59:37.891Z,8.60
2023-05-10T23:02:04.462Z,8.50
2023-05-10T23:04:30.985Z,8.70
2023-05-10T23:06:57.494Z,8.03
2023-05-10T23:09:24.013Z,8.63
2023-05-10T23:11:50.491Z,8.33
2023-05-10T23:14:17.002Z,8.50
2023-05-10T23:16:43.551Z,9.03
2023-05-10T23:19:10.150Z,8.53
2023-05-10T23:21:36.611Z,8.23
2023-05-10T23:24:03.306Z,8.57
2023-05-10T23:26:29.824Z,7.80
2023-05-10T23:28:56.295Z,7.70
2023-05-10T23:31:22.863Z,7.70
2023-05-10T23:33:49.350Z,8.03
2023-05-10T23:36:15.872Z,7.87
2023-05-10T23:38:42.377Z,7.83
2023-05-10T23:41:08.844Z,9.30
2023-05-10T23:43:35.338Z,9.23
2023-05-10T23:46:02.103Z,8.40
2023-05-10T23:48:28.702Z,9.67
2023-05-10T23:50:55.227Z,9.37
2023-05-10T23:53:21.780Z,9.13
2023-05-10T23:55:48.302Z,8.97
2023-05-10T23:58:14.961Z,8.97
